Time;durP1;ratioP1;P1;durP2;ratioP2;P2;SDS_P1;SDS_P2;PMS_P1;PMS_P2;Temp;Humidity;BMP_temperature;BMP_pressure;BME280_temperature;BME280_humidity;BME280_pressure;Samples;Min_cycle;Max_cycle;Signal;HPM_P1;HPM_P2
2021/08/26 00:01:02;;;;;;;8.20;7.30;;;17.70;99.90;;;;;;5070240;28;20416;-58
2021/08/26 00:06:19;;;;;;;8.70;6.43;;;17.60;99.90;;;;;;5067564;28;20407;-57
2021/08/26 00:08:46;;;;;;;8.00;5.93;;;17.60;99.90;;;;;;5070323;28;20924;-59
2021/08/26 00:11:13;;;;;;;8.37;6.67;;;17.60;99.90;;;;;;5070162;28;20492;-57
2021/08/26 00:13:43;;;;;;;7.70;6.40;;;17.50;99.90;;;;;;5070217;28;20424;-58
2021/08/26 00:16:09;;;;;;;8.37;7.00;;;17.50;99.90;;;;;;5070543;28;20468;-58
2021/08/26 00:18:34;;;;;;;8.00;7.17;;;17.50;99.90;;;;;;5070155;28;20412;-58
2021/08/26 00:21:00;;;;;;;7.50;6.50;;;17.40;99.90;;;;;;5068233;28;20184;-59
2021/08/26 00:26:00;;;;;;;7.10;6.33;;;17.40;99.90;;;;;;5008017;28;20688;-61
2021/08/26 00:28:26;;;;;;;6.00;5.40;;;17.20;99.90;;;;;;5010603;28;20391;-60
2021/08/26 00:30:52;;;;;;;7.93;6.70;;;17.20;99.90;;;;;;5010540;28;20682;-61
2021/08/26 00:33:17;;;;;;;7.87;5.90;;;17.30;99.90;;;;;;5010177;28;20207;-60
2021/08/26 00:35:43;;;;;;;8.37;6.80;;;17.10;99.90;;;;;;5009525;28;20329;-61
2021/08/26 00:38:09;;;;;;;9.83;6.37;;;17.00;99.90;;;;;;5010095;28;20191;-62
2021/08/26 00:40:35;;;;;;;7.47;6.40;;;17.00;99.90;;;;;;5009624;28;21044;-61
2021/08/26 00:43:00;;;;;;;9.87;7.17;;;17.00;99.90;;;;;;5010052;28;20167;-61
2021/08/26 00:45:28;;;;;;;8.10;6.40;;;16.90;99.90;;;;;;5009709;28;20286;-60
2021/08/26 00:47:54;;;;;;;9.33;7.00;;;16.70;99.90;;;;;;5010164;28;20165;-58
2021/08/26 00:50:24;;;;;;;10.57;6.73;;;16.70;99.90;;;;;;5009780;28;20419;-61
2021/08/26 00:52:49;;;;;;;9.50;7.03;;;16.70;99.90;;;;;;5008013;28;20449;-61
2021/08/26 00:55:15;;;;;;;9.27;7.17;;;16.70;99.90;;;;;;5006582;28;20445;-61
2021/08/26 00:57:41;;;;;;;9.90;7.13;;;16.70;99.90;;;;;;5010086;28;20172;-61
2021/08/26 01:00:09;;;;;;;7.60;6.10;;;16.60;99.90;;;;;;5009730;28;20178;-61
2021/08/26 01:03:06;;;;;;;7.50;6.40;;;16.70;99.90;;;;;;5009118;28;20175;-61
2021/08/26 01:05:51;;;;;;;8.57;6.80;;;16.60;99.90;;;;;;4995488;28;20455;-62
2021/08/26 01:08:18;;;;;;;8.50;6.37;;;16.60;99.90;;;;;;4995763;28;20425;-61
2021/08/26 01:10:50;;;;;;;8.80;6.67;;;16.40;99.90;;;;;;4996241;28;20416;-61
2021/08/26 01:13:17;;;;;;;9.00;7.90;;;16.40;99.90;;;;;;4995857;28;20968;-61
2021/08/26 01:16:21;;;;;;;8.07;6.83;;;16.40;99.90;;;;;;4996275;28;20773;-61
2021/08/26 01:18:48;;;;;;;6.93;6.20;;;16.30;99.90;;;;;;4954863;29;20447;-61
2021/08/26 01:21:16;;;;;;;8.10;6.73;;;16.20;99.90;;;;;;4955123;29;20420;-61
2021/08/26 01:23:44;;;;;;;8.50;6.77;;;16.20;99.90;;;;;;4965194;28;20936;-63
2021/08/26 01:26:15;;;;;;;8.13;6.37;;;16.20;99.90;;;;;;4996009;28;20393;-60
2021/08/26 01:28:44;;;;;;;8.50;6.33;;;16.20;99.90;;;;;;4995985;28;20476;-61
2021/08/26 01:31:10;;;;;;;8.00;6.80;;;16.20;99.90;;;;;;4996159;28;20400;-61
2021/08/26 01:33:36;;;;;;;7.90;6.63;;;16.20;99.90;;;;;;4995483;28;20877;-62
2021/08/26 01:36:03;;;;;;;7.93;6.10;;;16.10;99.90;;;;;;4995625;28;20178;-62
2021/08/26 01:38:28;;;;;;;7.10;6.23;;;16.10;99.90;;;;;;4995628;28;20193;-61
2021/08/26 01:40:54;;;;;;;6.90;5.93;;;16.00;99.90;;;;;;4995664;28;20451;-61
2021/08/26 01:43:21;;;;;;;8.40;7.20;;;16.00;99.90;;;;;;4995876;28;20333;-62
2021/08/26 01:45:48;;;;;;;7.47;5.57;;;16.10;99.90;;;;;;4995570;28;20467;-61
2021/08/26 01:48:17;;;;;;;11.87;7.20;;;16.10;99.90;;;;;;4995775;28;20413;-61
2021/08/26 01:50:44;;;;;;;8.30;6.20;;;16.00;99.90;;;;;;4995532;28;20436;-61
2021/08/26 01:53:10;;;;;;;6.20;5.60;;;16.00;99.90;;;;;;4995401;28;20449;-61
2021/08/26 01:55:35;;;;;;;7.97;6.73;;;16.10;99.90;;;;;;4995154;28;21022;-61
2021/08/26 01:58:01;;;;;;;9.10;6.83;;;16.00;99.90;;;;;;4995249;28;20188;-62
2021/08/26 02:00:27;;;;;;;7.40;6.40;;;16.00;99.90;;;;;;4995553;28;20516;-61
2021/08/26 02:02:53;;;;;;;8.93;6.43;;;15.80;99.90;;;;;;4995100;28;20423;-61
2021/08/26 02:05:18;;;;;;;7.20;6.50;;;15.80;99.90;;;;;;4989630;28;20756;-62
2021/08/26 02:07:48;;;;;;;8.13;7.30;;;15.90;99.90;;;;;;4995199;28;20184;-61
2021/08/26 02:10:13;;;;;;;7.80;7.00;;;15.80;99.90;;;;;;4995038;28;20600;-61
2021/08/26 02:12:41;;;;;;;7.60;6.90;;;15.90;99.90;;;;;;4995200;28;20458;-61
2021/08/26 02:15:07;;;;;;;6.77;6.10;;;15.90;99.90;;;;;;4994203;28;20217;-61
2021/08/26 02:17:33;;;;;;;7.20;5.83;;;15.90;99.90;;;;;;4995282;28;20765;-61
2021/08/26 02:19:58;;;;;;;10.13;6.77;;;15.80;99.90;;;;;;4995007;28;20417;-62
2021/08/26 02:22:24;;;;;;;7.07;6.10;;;15.70;99.90;;;;;;4995117;28;20633;-62
2021/08/26 02:24:49;;;;;;;10.83;6.97;;;15.70;99.90;;;;;;4994186;28;20565;-62
2021/08/26 02:27:15;;;;;;;10.60;6.60;;;15.70;99.90;;;;;;4995011;28;20172;-62
2021/08/26 02:29:40;;;;;;;6.90;6.10;;;15.70;99.90;;;;;;4994667;28;20187;-62
2021/08/26 02:32:06;;;;;;;6.23;5.33;;;15.70;99.90;;;;;;4994741;28;20203;-62
2021/08/26 02:34:32;;;;;;;9.73;7.03;;;15.50;99.90;;;;;;4994325;28;20201;-62
2021/08/26 02:36:58;;;;;;;8.20;6.70;;;15.50;99.90;;;;;;4994536;28;20610;-62
2021/08/26 02:39:24;;;;;;;8.90;6.10;;;15.50;99.90;;;;;;4994491;28;21227;-62
2021/08/26 02:41:49;;;;;;;11.10;6.20;;;15.50;99.90;;;;;;4994592;28;20310;-62
2021/08/26 02:44:15;;;;;;;9.60;6.53;;;15.50;99.90;;;;;;4994362;28;20207;-62
2021/08/26 02:46:40;;;;;;;6.93;6.23;;;15.50;99.90;;;;;;4994707;28;20679;-62
2021/08/26 02:49:06;;;;;;;8.10;6.33;;;15.50;99.90;;;;;;4994512;28;20223;-62
2021/08/26 02:51:32;;;;;;;10.27;6.10;;;15.50;99.90;;;;;;4994500;28;20180;-62
2021/08/26 02:53:57;;;;;;;9.40;6.67;;;15.50;99.90;;;;;;4994017;28;20702;-62
2021/08/26 02:56:23;;;;;;;7.33;6.50;;;15.40;99.90;;;;;;4994200;28;20171;-61
2021/08/26 02:58:49;;;;;;;8.93;7.30;;;15.40;99.90;;;;;;4994250;28;20208;-62
2021/08/26 03:01:14;;;;;;;8.23;7.13;;;15.50;99.90;;;;;;4994695;28;20202;-62
2021/08/26 03:03:40;;;;;;;6.90;6.20;;;15.50;99.90;;;;;;4993942;28;20263;-62
2021/08/26 03:06:06;;;;;;;8.97;6.80;;;15.40;99.90;;;;;;4992292;28;20190;-62
2021/08/26 03:08:32;;;;;;;8.40;6.67;;;15.40;99.90;;;;;;4992648;28;20176;-62
2021/08/26 03:10:58;;;;;;;9.70;6.50;;;15.50;99.90;;;;;;4993434;28;20518;-62
2021/08/26 03:13:24;;;;;;;10.90;6.50;;;15.60;99.90;;;;;;4993311;28;20253;-62
2021/08/26 03:15:49;;;;;;;7.40;6.60;;;15.70;99.90;;;;;;4994304;28;20433;-62
2021/08/26 03:18:15;;;;;;;7.27;6.20;;;15.80;99.90;;;;;;4993032;28;20178;-62
2021/08/26 03:20:42;;;;;;;10.33;6.97;;;15.90;99.90;;;;;;4992154;28;20218;-62
2021/08/26 03:23:08;;;;;;;8.00;6.03;;;15.90;99.90;;;;;;4992403;28;20478;-59
2021/08/26 03:25:33;;;;;;;8.03;6.50;;;16.00;99.90;;;;;;4993457;28;20445;-62
2021/08/26 03:27:59;;;;;;;6.57;5.80;;;16.20;99.90;;;;;;4992275;28;20429;-62
2021/08/26 03:30:25;;;;;;;7.10;6.40;;;16.30;99.90;;;;;;4992445;28;20182;-62
2021/08/26 03:32:50;;;;;;;7.43;6.57;;;16.30;99.90;;;;;;4993446;28;20453;-62
2021/08/26 03:35:17;;;;;;;8.27;6.07;;;16.40;99.90;;;;;;4992913;28;20682;-62
2021/08/26 03:37:43;;;;;;;7.27;6.53;;;16.40;99.90;;;;;;4992336;28;20645;-62
2021/08/26 03:40:09;;;;;;;9.20;6.53;;;16.30;99.90;;;;;;4992194;28;20539;-62
2021/08/26 03:42:35;;;;;;;7.17;6.17;;;16.40;99.90;;;;;;4991987;28;20191;-62
2021/08/26 03:45:01;;;;;;;7.80;6.10;;;16.50;99.90;;;;;;4992758;28;20986;-62
2021/08/26 03:47:27;;;;;;;6.40;5.40;;;16.50;99.90;;;;;;4988744;28;20187;-61
2021/08/26 03:49:52;;;;;;;8.20;7.03;;;16.60;99.90;;;;;;4991287;28;20257;-62
2021/08/26 03:52:18;;;;;;;7.30;6.33;;;16.50;99.90;;;;;;4992592;28;20592;-62
2021/08/26 03:54:44;;;;;;;6.43;5.93;;;16.50;99.90;;;;;;4987013;28;20195;-63
2021/08/26 03:57:09;;;;;;;7.40;6.60;;;16.60;99.90;;;;;;4990024;28;20272;-62
2021/08/26 03:59:35;;;;;;;6.90;6.20;;;16.60;99.90;;;;;;4987500;28;20569;-63
2021/08/26 04:02:01;;;;;;;7.57;6.50;;;16.60;99.90;;;;;;4992193;28;20270;-62
2021/08/26 04:04:26;;;;;;;7.23;6.03;;;16.60;99.90;;;;;;4985040;28;20201;-63
2021/08/26 04:06:52;;;;;;;7.70;6.57;;;16.50;99.90;;;;;;4988179;28;20208;-61
2021/08/26 04:09:17;;;;;;;11.03;7.10;;;16.60;99.90;;;;;;4989981;28;20207;-62
2021/08/26 04:11:43;;;;;;;8.90;6.10;;;16.60;99.90;;;;;;4989418;28;20251;-61
2021/08/26 04:14:09;;;;;;;11.83;7.30;;;16.60;99.90;;;;;;4992283;28;20675;-60
2021/08/26 04:16:35;;;;;;;7.70;6.40;;;16.50;99.90;;;;;;4993489;28;20652;-61
2021/08/26 04:19:00;;;;;;;6.20;5.60;;;16.40;99.90;;;;;;4992622;28;20216;-61
2021/08/26 04:21:26;;;;;;;12.03;7.10;;;16.50;99.90;;;;;;4990332;28;20187;-62
2021/08/26 04:23:51;;;;;;;6.93;5.90;;;16.60;99.90;;;;;;4992647;28;20235;-58
2021/08/26 04:26:17;;;;;;;7.10;5.87;;;16.60;99.90;;;;;;4992446;28;20174;-62
2021/08/26 04:28:43;;;;;;;7.10;5.87;;;16.70;99.90;;;;;;4991115;28;20308;-62
2021/08/26 04:31:09;;;;;;;7.20;5.67;;;16.70;99.90;;;;;;4988959;28;20179;-60
2021/08/26 04:33:35;;;;;;;9.10;6.90;;;16.80;99.90;;;;;;4989867;28;20724;-62
2021/08/26 04:36:00;;;;;;;8.90;6.00;;;16.70;99.90;;;;;;4989947;28;20561;-62
2021/08/26 04:38:26;;;;;;;8.80;6.57;;;16.70;99.90;;;;;;4990435;28;20678;-65
2021/08/26 04:40:52;;;;;;;7.47;5.90;;;16.80;99.90;;;;;;4993341;28;20248;-62
2021/08/26 04:43:18;;;;;;;7.37;6.27;;;16.80;99.90;;;;;;4995784;28;20177;-61
2021/08/26 04:45:43;;;;;;;7.70;5.87;;;16.80;99.90;;;;;;4995722;28;20980;-62
2021/08/26 04:48:09;;;;;;;8.20;6.53;;;16.80;99.90;;;;;;4995669;28;20676;-62
2021/08/26 04:50:34;;;;;;;6.20;5.60;;;16.70;99.90;;;;;;4996012;28;20195;-62
2021/08/26 04:53:00;;;;;;;6.53;5.70;;;16.60;99.90;;;;;;4996025;28;20205;-62
2021/08/26 04:55:26;;;;;;;6.73;6.03;;;16.70;99.90;;;;;;4991972;28;20685;-64
2021/08/26 04:57:51;;;;;;;7.30;6.33;;;16.80;99.90;;;;;;4996131;28;20209;-63
2021/08/26 05:00:17;;;;;;;6.27;5.23;;;16.90;99.90;;;;;;4993830;28;20665;-62
2021/08/26 05:02:42;;;;;;;7.03;6.20;;;17.00;99.90;;;;;;4995818;28;20229;-62
2021/08/26 05:05:08;;;;;;;7.70;6.43;;;17.00;99.90;;;;;;4996270;28;21027;-62
2021/08/26 05:07:34;;;;;;;7.10;6.10;;;16.90;99.90;;;;;;4995642;28;20526;-62
2021/08/26 05:10:00;;;;;;;7.00;6.10;;;16.90;99.90;;;;;;4995838;28;20553;-62
2021/08/26 05:12:25;;;;;;;8.27;6.57;;;16.90;99.90;;;;;;4996288;28;20191;-62
2021/08/26 05:14:51;;;;;;;9.17;7.23;;;16.90;99.90;;;;;;4994696;28;20224;-62
2021/08/26 05:17:17;;;;;;;8.00;6.60;;;16.90;99.90;;;;;;4995107;28;20176;-59
2021/08/26 05:19:43;;;;;;;7.97;6.33;;;17.00;99.90;;;;;;4993064;28;20197;-62
2021/08/26 05:22:09;;;;;;;10.30;7.27;;;17.00;99.90;;;;;;4995766;28;20923;-61
2021/08/26 05:24:35;;;;;;;8.43;6.70;;;17.00;99.90;;;;;;4994235;28;21609;-62
2021/08/26 05:27:00;;;;;;;7.70;6.90;;;17.00;99.90;;;;;;4994781;28;20183;-61
2021/08/26 05:29:26;;;;;;;11.10;7.30;;;17.00;99.90;;;;;;4992497;28;20185;-62
2021/08/26 05:31:52;;;;;;;11.63;7.60;;;17.10;99.90;;;;;;4995481;28;20671;-62
2021/08/26 05:34:17;;;;;;;10.13;6.27;;;17.10;99.90;;;;;;4994779;28;20195;-62
2021/08/26 05:36:43;;;;;;;9.30;7.40;;;17.20;99.90;;;;;;4995635;28;20164;-62
2021/08/26 05:39:09;;;;;;;8.07;6.70;;;17.20;99.90;;;;;;4992967;28;20637;-62
2021/08/26 05:41:34;;;;;;;8.60;7.03;;;17.40;99.90;;;;;;4995698;28;20278;-61
2021/08/26 05:44:00;;;;;;;10.00;7.10;;;17.40;99.90;;;;;;4995908;28;20194;-62
2021/08/26 05:46:26;;;;;;;9.00;7.67;;;17.20;99.90;;;;;;4995533;28;20169;-62
2021/08/26 05:48:51;;;;;;;8.60;7.20;;;17.40;99.90;;;;;;4994779;28;20179;-62
2021/08/26 05:51:17;;;;;;;8.73;7.83;;;17.40;99.90;;;;;;4995506;28;20327;-62
2021/08/26 05:53:42;;;;;;;9.00;7.37;;;17.40;99.90;;;;;;4993012;28;20202;-62
2021/08/26 05:56:08;;;;;;;9.80;7.10;;;17.50;99.90;;;;;;4984246;28;20627;-62
2021/08/26 05:58:33;;;;;;;8.83;7.83;;;17.60;99.90;;;;;;4993083;28;20268;-62
2021/08/26 06:00:59;;;;;;;8.50;7.17;;;17.70;99.90;;;;;;4994145;28;20211;-62
2021/08/26 06:03:25;;;;;;;13.30;8.63;;;17.50;99.90;;;;;;5010427;28;20188;-61
2021/08/26 06:05:50;;;;;;;9.00;7.57;;;17.60;99.90;;;;;;4994971;28;20211;-62
2021/08/26 06:08:16;;;;;;;10.50;8.67;;;17.70;99.90;;;;;;4994972;28;20197;-62
2021/08/26 06:10:42;;;;;;;14.20;8.33;;;17.70;99.90;;;;;;4994610;28;20665;-62
2021/08/26 06:13:07;;;;;;;11.33;8.63;;;17.80;99.90;;;;;;4994780;28;20192;-62
2021/08/26 06:15:33;;;;;;;10.63;7.13;;;17.90;99.90;;;;;;4993181;28;20650;-61
2021/08/26 06:17:59;;;;;;;9.17;8.23;;;17.90;99.90;;;;;;4994259;28;20584;-62
2021/08/26 06:20:24;;;;;;;7.80;6.93;;;18.00;99.90;;;;;;4994713;28;20204;-62
2021/08/26 06:22:50;;;;;;;9.13;7.23;;;17.80;99.90;;;;;;4994724;28;20251;-62
2021/08/26 06:25:15;;;;;;;8.87;6.80;;;17.80;99.90;;;;;;5041316;22;20291;-59
2021/08/26 06:27:41;;;;;;;12.80;10.10;;;18.00;99.90;;;;;;5001619;28;20263;-58
2021/08/26 06:30:10;;;;;;;9.90;7.33;;;17.80;99.90;;;;;;5008875;28;20259;-59
2021/08/26 06:32:36;;;;;;;8.90;7.03;;;17.90;99.90;;;;;;5009573;28;20450;-58
2021/08/26 06:35:03;;;;;;;10.93;7.60;;;17.80;99.90;;;;;;5014022;28;20453;-59
2021/08/26 06:37:29;;;;;;;11.03;7.93;;;17.90;99.90;;;;;;5014625;28;20171;-59
2021/08/26 06:39:55;;;;;;;10.77;8.97;;;17.70;99.90;;;;;;5011969;28;20426;-60
2021/08/26 06:42:21;;;;;;;12.87;10.50;;;17.60;99.90;;;;;;4994423;28;20404;-61
2021/08/26 06:44:47;;;;;;;10.27;9.20;;;17.70;99.90;;;;;;4992791;28;20762;-58
2021/08/26 06:47:12;;;;;;;12.53;8.20;;;17.70;99.90;;;;;;4992686;28;20169;-55
2021/08/26 06:49:40;;;;;;;10.70;7.53;;;17.90;99.90;;;;;;4992635;28;20615;-60
2021/08/26 06:52:05;;;;;;;12.53;8.90;;;18.00;99.90;;;;;;4992560;28;20192;-59
2021/08/26 06:54:31;;;;;;;10.47;9.37;;;17.90;99.90;;;;;;4994619;28;20464;-60
2021/08/26 06:56:57;;;;;;;13.43;8.87;;;17.80;99.90;;;;;;5012255;28;20164;-61
2021/08/26 06:59:22;;;;;;;14.63;8.77;;;17.80;99.90;;;;;;5013834;28;20168;-58
2021/08/26 07:01:48;;;;;;;10.77;8.70;;;17.80;99.90;;;;;;5014270;28;20632;-59
2021/08/26 07:04:14;;;;;;;12.27;9.23;;;17.60;99.90;;;;;;5014683;28;20182;-56
2021/08/26 07:06:39;;;;;;;9.20;8.20;;;17.60;99.90;;;;;;5013260;28;20255;-58
2021/08/26 07:09:05;;;;;;;10.88;9.32;;;17.70;99.90;;;;;;5012337;28;20477;-59
2021/08/26 07:11:30;;;;;;;10.93;9.83;;;17.90;99.90;;;;;;5013839;28;20187;-59
2021/08/26 07:13:56;;;;;;;12.33;9.03;;;17.70;99.90;;;;;;5014033;28;20163;-58
2021/08/26 07:16:22;;;;;;;9.73;8.20;;;17.60;99.90;;;;;;5013087;28;20614;-59
2021/08/26 07:18:47;;;;;;;13.37;10.40;;;17.50;99.90;;;;;;5013734;28;20164;-57
2021/08/26 07:21:13;;;;;;;13.10;9.37;;;17.60;99.90;;;;;;5014063;28;20706;-59
2021/08/26 07:23:38;;;;;;;10.40;9.00;;;17.70;99.90;;;;;;5013873;28;20168;-55
2021/08/26 07:26:04;;;;;;;13.30;10.50;;;17.90;99.90;;;;;;5011959;28;20227;-57
2021/08/26 07:28:30;;;;;;;12.37;10.50;;;17.80;99.90;;;;;;5014399;28;20291;-58
2021/08/26 07:30:55;;;;;;;12.13;10.27;;;17.60;99.90;;;;;;5014085;28;20535;-59
2021/08/26 07:33:21;;;;;;;16.20;12.53;;;17.60;99.90;;;;;;5013932;28;20244;-59
2021/08/26 07:35:47;;;;;;;11.23;9.87;;;17.70;99.90;;;;;;5013655;28;20303;-58
2021/08/26 07:38:12;;;;;;;14.60;10.00;;;18.00;99.90;;;;;;5013921;28;20263;-56
2021/08/26 07:40:38;;;;;;;14.20;11.30;;;18.10;99.90;;;;;;5013304;28;20226;-57
2021/08/26 07:43:04;;;;;;;12.23;10.93;;;18.00;99.90;;;;;;5013602;28;20254;-59
2021/08/26 07:45:30;;;;;;;15.07;10.50;;;18.00;99.90;;;;;;5013316;28;20234;-57
2021/08/26 07:47:55;;;;;;;11.33;9.77;;;18.00;99.90;;;;;;5013472;28;20183;-59
2021/08/26 07:50:21;;;;;;;10.17;9.17;;;18.20;99.90;;;;;;5013358;28;20891;-55
2021/08/26 07:52:47;;;;;;;12.17;10.73;;;18.10;99.90;;;;;;5013506;28;20195;-56
2021/08/26 07:55:13;;;;;;;15.43;11.07;;;18.00;99.90;;;;;;5013051;28;20733;-56
2021/08/26 07:57:39;;;;;;;10.87;9.47;;;18.00;99.90;;;;;;5013692;28;20501;-58
2021/08/26 08:00:05;;;;;;;10.90;9.73;;;18.10;99.90;;;;;;5013457;28;20418;-55
2021/08/26 08:02:31;;;;;;;10.87;9.33;;;18.10;99.90;;;;;;5013312;28;20175;-58
2021/08/26 08:04:57;;;;;;;12.13;9.77;;;18.00;99.90;;;;;;5013262;28;20427;-58
2021/08/26 08:07:22;;;;;;;12.00;8.70;;;18.10;99.90;;;;;;5013281;28;20636;-58
2021/08/26 08:09:48;;;;;;;12.73;9.50;;;17.90;99.90;;;;;;5013100;28;20176;-59
2021/08/26 08:12:14;;;;;;;11.13;9.30;;;17.70;99.90;;;;;;5008417;28;20210;-59
2021/08/26 08:14:42;;;;;;;11.37;10.27;;;17.70;99.90;;;;;;5015344;28;20730;-58
2021/08/26 08:17:09;;;;;;;11.37;9.70;;;17.80;99.90;;;;;;5015978;28;20176;-58
2021/08/26 08:19:34;;;;;;;13.53;10.43;;;17.90;99.90;;;;;;5017060;28;20946;-56
2021/08/26 08:22:00;;;;;;;12.30;10.27;;;17.90;99.90;;;;;;5017025;28;20453;-59
2021/08/26 08:24:27;;;;;;;14.47;11.00;;;17.70;99.90;;;;;;5017183;28;20231;-59
2021/08/26 08:26:52;;;;;;;14.10;11.80;;;17.60;99.90;;;;;;5017487;28;20586;-59
2021/08/26 08:29:18;;;;;;;14.20;12.67;;;17.50;99.90;;;;;;5017631;28;20446;-58
2021/08/26 08:31:43;;;;;;;15.73;13.43;;;17.30;99.90;;;;;;5017226;28;20661;-59
2021/08/26 08:34:09;;;;;;;13.83;11.43;;;17.20;99.90;;;;;;5016777;28;20200;-58
2021/08/26 08:36:35;;;;;;;13.90;12.30;;;17.10;99.90;;;;;;5016888;28;20172;-58
2021/08/26 08:39:00;;;;;;;13.87;10.83;;;17.10;99.90;;;;;;5017181;28;20171;-59
2021/08/26 08:41:26;;;;;;;14.73;11.83;;;17.10;99.90;;;;;;5016476;28;20215;-57
2021/08/26 08:43:52;;;;;;;13.70;12.30;;;17.20;99.90;;;;;;5017104;28;20676;-56
2021/08/26 08:46:20;;;;;;;16.83;14.53;;;17.30;99.90;;;;;;5017055;28;20198;-57
2021/08/26 08:48:46;;;;;;;16.43;14.83;;;17.00;99.90;;;;;;5016775;28;20402;-57
2021/08/26 08:51:12;;;;;;;15.47;13.97;;;16.70;99.90;;;;;;5017037;28;20400;-58
2021/08/26 08:53:39;;;;;;;15.33;13.70;;;16.90;99.90;;;;;;5016441;28;20439;-57
2021/08/26 08:56:06;;;;;;;16.40;14.50;;;17.20;99.90;;;;;;5015265;28;20438;-59
2021/08/26 08:58:37;;;;;;;14.43;13.00;;;17.20;99.90;;;;;;5016491;28;20448;-58
2021/08/26 09:01:02;;;;;;;15.13;13.73;;;17.30;99.90;;;;;;5016692;28;20464;-59
2021/08/26 09:03:28;;;;;;;16.10;14.27;;;17.10;99.90;;;;;;5016610;28;20402;-58
2021/08/26 09:05:56;;;;;;;14.87;13.37;;;17.10;99.90;;;;;;5016610;28;20192;-59
2021/08/26 09:08:23;;;;;;;15.10;12.80;;;17.20;99.90;;;;;;5016490;28;20175;-58
2021/08/26 09:10:54;;;;;;;14.23;12.83;;;17.40;99.90;;;;;;5016137;28;20414;-58
2021/08/26 09:13:33;;;;;;;13.10;10.77;;;17.40;99.90;;;;;;5016496;28;20447;-58
2021/08/26 09:16:00;;;;;;;18.40;14.73;;;17.50;99.90;;;;;;5016194;28;20939;-59
2021/08/26 09:18:26;;;;;;;15.23;13.73;;;17.60;99.90;;;;;;5016055;28;20399;-56
2021/08/26 09:20:57;;;;;;;13.77;12.47;;;17.70;99.90;;;;;;5016102;28;20973;-59
2021/08/26 09:23:25;;;;;;;17.10;15.30;;;17.40;99.90;;;;;;5016313;28;20531;-57
2021/08/26 09:25:53;;;;;;;18.53;14.80;;;17.40;99.90;;;;;;5015044;28;20459;-55
2021/08/26 09:28:33;;;;;;;14.83;13.33;;;17.40;99.90;;;;;;5016121;28;20407;-58
2021/08/26 09:31:22;;;;;;;16.67;14.90;;;17.60;99.90;;;;;;5014869;28;20430;-59
2021/08/26 09:34:12;;;;;;;15.10;13.70;;;17.60;99.90;;;;;;5016278;28;20431;-57
2021/08/26 09:36:38;;;;;;;15.97;14.40;;;17.80;99.90;;;;;;5016157;28;20390;-58
2021/08/26 09:39:24;;;;;;;17.90;16.10;;;17.70;99.90;;;;;;5015621;28;20403;-54
2021/08/26 09:42:02;;;;;;;14.40;13.00;;;17.70;99.90;;;;;;5014510;28;20307;-54
2021/08/26 09:44:32;;;;;;;18.67;13.00;;;17.50;99.90;;;;;;5015900;28;20973;-56
2021/08/26 09:47:00;;;;;;;15.63;14.07;;;17.50;99.90;;;;;;5015469;28;20423;-57
2021/08/26 09:49:28;;;;;;;16.20;14.17;;;17.50;99.90;;;;;;5014403;28;20434;-58
2021/08/26 09:52:11;;;;;;;14.63;13.33;;;17.30;99.90;;;;;;5015825;28;20920;-56
2021/08/26 09:54:40;;;;;;;14.17;12.73;;;17.50;99.90;;;;;;5015459;28;20423;-55
2021/08/26 09:57:23;;;;;;;14.00;10.90;;;17.40;99.90;;;;;;5016024;28;20430;-55
2021/08/26 09:59:53;;;;;;;10.97;9.87;;;17.30;99.90;;;;;;5015421;28;20417;-57
2021/08/26 10:02:20;;;;;;;11.73;10.63;;;17.40;99.90;;;;;;5008119;28;20590;-58
2021/08/26 10:04:47;;;;;;;10.60;9.60;;;17.40;99.90;;;;;;5015378;28;20431;-59
2021/08/26 10:07:14;;;;;;;9.80;8.93;;;17.40;99.90;;;;;;5014822;28;20426;-58
2021/08/26 10:09:41;;;;;;;9.10;8.30;;;17.20;99.90;;;;;;5015342;28;20406;-59
2021/08/26 10:12:11;;;;;;;9.70;8.83;;;17.20;99.90;;;;;;5011864;28;20609;-59
2021/08/26 10:14:37;;;;;;;8.87;8.07;;;17.30;99.90;;;;;;5015339;28;20427;-59
2021/08/26 10:17:03;;;;;;;9.10;8.30;;;17.40;99.90;;;;;;5014959;28;20398;-57
2021/08/26 10:19:30;;;;;;;10.30;8.20;;;17.40;99.90;;;;;;5015046;28;20939;-58
2021/08/26 10:21:56;;;;;;;6.60;6.00;;;17.20;99.90;;;;;;5015029;28;20160;-59
2021/08/26 10:24:22;;;;;;;7.77;6.60;;;17.10;99.90;;;;;;5015004;28;20816;-57
2021/08/26 10:26:57;;;;;;;5.30;4.80;;;16.90;99.90;;;;;;5015186;28;20153;-58
2021/08/26 10:29:23;;;;;;;6.73;5.33;;;16.80;99.90;;;;;;5014961;28;20422;-57
2021/08/26 10:32:00;;;;;;;4.20;3.90;;;16.70;99.90;;;;;;5014247;28;20426;-57
2021/08/26 10:34:31;;;;;;;4.60;3.80;;;16.70;99.90;;;;;;5014658;28;20430;-56
2021/08/26 10:36:57;;;;;;;3.47;3.17;;;16.70;99.90;;;;;;5013937;28;20794;-59
2021/08/26 10:39:56;;;;;;;4.00;3.70;;;16.80;99.90;;;;;;5014697;28;20461;-59
2021/08/26 10:42:32;;;;;;;3.90;3.60;;;16.90;99.90;;;;;;5001795;28;20184;-56
2021/08/26 10:45:02;;;;;;;3.53;3.23;;;17.10;99.90;;;;;;5014540;28;20414;-59
2021/08/26 10:47:49;;;;;;;3.33;3.03;;;17.30;99.90;;;;;;5014329;28;20402;-57
2021/08/26 10:50:22;;;;;;;4.90;3.63;;;17.50;99.90;;;;;;5010244;28;20406;-58
2021/08/26 10:52:58;;;;;;;3.63;3.30;;;17.20;99.90;;;;;;5010928;28;20446;-55
2021/08/26 10:55:31;;;;;;;4.20;3.80;;;17.30;99.90;;;;;;5014001;28;20451;-59
2021/08/26 10:58:26;;;;;;;5.30;4.07;;;17.20;99.90;;;;;;5014095;28;20911;-56
2021/08/26 11:01:00;;;;;;;4.93;4.47;;;17.20;99.90;;;;;;5014619;28;20410;-59
2021/08/26 11:03:34;;;;;;;4.80;4.40;;;17.50;99.90;;;;;;5014848;28;20387;-57
2021/08/26 11:06:01;;;;;;;4.40;4.00;;;18.00;99.90;;;;;;5014050;28;20437;-57
2021/08/26 11:08:29;;;;;;;5.13;4.63;;;18.50;99.90;;;;;;5014194;28;20862;-57
2021/08/26 11:10:55;;;;;;;6.07;4.13;;;18.70;99.90;;;;;;5014932;28;20485;-57
2021/08/26 11:13:34;;;;;;;4.17;3.77;;;18.70;99.90;;;;;;5013951;28;20450;-57
2021/08/26 11:16:24;;;;;;;6.67;5.57;;;19.10;99.90;;;;;;5014330;28;20437;-59
2021/08/26 11:18:50;;;;;;;5.30;4.80;;;19.50;99.90;;;;;;5014407;28;20733;-58
2021/08/26 11:21:42;;;;;;;6.03;5.43;;;20.20;99.90;;;;;;5014065;28;20395;-57
2021/08/26 11:24:09;;;;;;;5.37;4.87;;;20.90;99.90;;;;;;5013415;28;20399;-57
2021/08/26 11:26:48;;;;;;;5.30;4.80;;;21.20;99.90;;;;;;5013782;28;20419;-59
2021/08/26 11:29:25;;;;;;;5.23;4.40;;;21.40;99.90;;;;;;5013667;28;20452;-57
2021/08/26 11:31:54;;;;;;;6.10;4.80;;;20.90;99.90;;;;;;5012303;28;20930;-59
2021/08/26 11:34:22;;;;;;;6.07;5.20;;;20.90;99.90;;;;;;5013505;28;20442;-57
2021/08/26 11:37:11;;;;;;;7.80;5.20;;;20.60;99.90;;;;;;5013647;28;20893;-56
2021/08/26 11:39:39;;;;;;;7.33;6.57;;;20.00;99.90;;;;;;5012912;28;20411;-58
2021/08/26 11:42:07;;;;;;;7.90;6.43;;;19.50;99.90;;;;;;5013792;28;20438;-58
2021/08/26 11:44:33;;;;;;;10.83;7.03;;;19.50;99.90;;;;;;5013143;28;20809;-58
2021/08/26 11:46:59;;;;;;;8.57;6.93;;;19.60;99.90;;;;;;5013459;28;20796;-57
2021/08/26 11:49:41;;;;;;;6.90;6.20;;;19.60;99.90;;;;;;5012624;28;20517;-57
2021/08/26 11:52:15;;;;;;;13.13;5.73;;;19.20;99.90;;;;;;5013374;28;20194;-58
2021/08/26 11:54:44;;;;;;;6.77;6.17;;;18.90;99.90;;;;;;5013612;28;20797;-57
2021/08/26 11:57:10;;;;;;;7.23;6.53;;;19.00;99.90;;;;;;5013924;28;20398;-58
2021/08/26 11:59:41;;;;;;;7.90;7.10;;;18.90;99.90;;;;;;5013153;28;20399;-59
2021/08/26 12:02:25;;;;;;;7.43;6.63;;;18.80;99.90;;;;;;5013032;28;20422;-59
2021/08/26 12:04:57;;;;;;;7.63;6.10;;;18.60;99.90;;;;;;5012462;28;20442;-57
2021/08/26 12:07:32;;;;;;;7.43;6.73;;;18.50;99.90;;;;;;5013616;28;20403;-57
2021/08/26 12:10:12;;;;;;;8.83;6.83;;;18.40;99.90;;;;;;5012838;28;20910;-59
2021/08/26 12:12:48;;;;;;;9.25;7.25;;;18.60;99.90;;;;;;5013004;28;20445;-58
2021/08/26 12:15:40;;;;;;;9.80;6.43;;;18.70;99.90;;;;;;5012988;28;20187;-58
2021/08/26 12:18:07;;;;;;;7.30;6.40;;;18.90;99.90;;;;;;5006591;28;20778;-57
2021/08/26 12:20:36;;;;;;;6.50;5.80;;;19.00;99.90;;;;;;5009885;28;20748;-59
2021/08/26 12:23:02;;;;;;;8.50;7.03;;;19.30;99.90;;;;;;5012613;28;20922;-58
2021/08/26 12:25:34;;;;;;;10.40;8.07;;;19.30;99.90;;;;;;5043455;23;20584;-63
2021/08/26 12:28:04;;;;;;;8.00;6.63;;;19.30;99.90;;;;;;5033060;28;20387;-63
2021/08/26 12:30:35;;;;;;;8.60;6.37;;;19.60;99.90;;;;;;5032820;28;20815;-62
2021/08/26 12:33:21;;;;;;;10.13;6.23;;;19.70;99.90;;;;;;5032217;28;20476;-62
2021/08/26 12:35:51;;;;;;;8.50;6.33;;;19.60;99.90;;;;;;5032876;28;20773;-62
2021/08/26 12:38:34;;;;;;;7.40;6.43;;;19.70;99.90;;;;;;5032774;28;20394;-62
2021/08/26 12:41:05;;;;;;;8.80;6.23;;;19.70;99.90;;;;;;5032792;28;20401;-62
2021/08/26 12:43:46;;;;;;;7.83;6.03;;;20.20;99.90;;;;;;5032814;28;20386;-63
2021/08/26 12:46:16;;;;;;;10.90;6.63;;;20.10;99.90;;;;;;5031981;28;20460;-62
2021/08/26 12:48:42;;;;;;;6.27;5.57;;;19.90;99.90;;;;;;5032910;28;20402;-62
2021/08/26 12:51:11;;;;;;;8.53;6.13;;;20.10;99.90;;;;;;5032530;28;20402;-61